createdAt,value
2022-07-27T00:04:47.348Z,62.10
2022-07-27T00:09:49.656Z,61.20
2022-07-27T00:14:51.940Z,60.70
2022-07-27T00:19:54.265Z,60.60
2022-07-27T00:24:56.529Z,60.10
2022-07-27T00:29:58.852Z,60.30
2022-07-27T00:35:01.071Z,59.90
2022-07-27T00:40:05.135Z,60.30
2022-07-27T00:45:07.961Z,60.00
2022-07-27T00:50:10.993Z,60.30
2022-07-27T00:55:13.770Z,60.20
2022-07-27T01:00:17.005Z,59.50
2022-07-27T01:05:20.417Z,59.60
2022-07-27T01:10:23.635Z,59.70
2022-07-27T01:15:25.988Z,59.80
2022-07-27T01:20:28.232Z,59.20
2022-07-27T01:25:30.507Z,59.70
2022-07-27T01:30:33.265Z,59.40
2022-07-27T01:35:37.325Z,59.30
2022-07-27T01:40:40.024Z,59.00
2022-07-27T01:45:42.356Z,59.10
2022-07-27T01:50:46.211Z,59.30
2022-07-27T01:55:51.240Z,58.80
2022-07-27T02:00:53.754Z,58.70
2022-07-27T02:05:56.011Z,59.20
2022-07-27T02:11:18.502Z,59.20
2022-07-27T02:16:20.960Z,59.10
2022-07-27T02:21:26.829Z,59.20
2022-07-27T02:26:29.145Z,59.20
2022-07-27T02:31:33.069Z,58.80
2022-07-27T02:36:35.526Z,59.10
2022-07-27T02:41:37.764Z,59.00
2022-07-27T02:46:40.460Z,58.70
2022-07-27T02:51:42.787Z,59.00
2022-07-27T02:56:45.488Z,59.00
2022-07-27T03:01:49.027Z,58.60
2022-07-27T03:06:51.469Z,58.50
2022-07-27T03:11:53.731Z,58.70
2022-07-27T03:16:56.037Z,58.60
2022-07-27T03:21:58.320Z,58.90
2022-07-27T03:27:00.573Z,58.70
2022-07-27T03:32:02.837Z,58.60
2022-07-27T03:37:05.094Z,58.60
2022-07-27T03:42:07.510Z,58.60
2022-07-27T03:47:09.973Z,58.70
2022-07-27T03:52:17.484Z,58.60
2022-07-27T03:57:20.192Z,58.20
2022-07-27T04:02:22.608Z,59.00
2022-07-27T04:07:24.914Z,59.60
2022-07-27T04:12:27.243Z,58.80
2022-07-27T04:17:53.267Z,59.00
2022-07-27T04:22:52.023Z,58.90
2022-07-27T04:27:54.861Z,58.60
2022-07-27T04:32:57.243Z,59.00
2022-07-27T04:37:59.965Z,59.10
2022-07-27T04:43:04.084Z,59.00
2022-07-27T04:48:09.329Z,58.50
2022-07-27T04:53:12.891Z,58.60
2022-07-27T04:58:15.523Z,59.00
2022-07-27T05:17:59.108Z,59.00
2022-07-27T05:23:22.605Z,57.60
2022-07-27T05:28:24.881Z,57.90
2022-07-27T05:33:27.193Z,58.40
2022-07-27T05:38:29.512Z,58.30
2022-07-27T05:43:31.756Z,57.90
2022-07-27T05:48:34.079Z,57.90
2022-07-27T05:53:36.671Z,58.20
2022-07-27T05:58:39.036Z,57.80
2022-07-27T06:03:41.331Z,58.40
2022-07-27T06:08:44.840Z,57.90
2022-07-27T06:13:47.380Z,58.10
2022-07-27T06:18:49.929Z,56.20
2022-07-27T06:23:53.709Z,55.50
2022-07-27T06:28:58.957Z,55.50
2022-07-27T06:34:02.071Z,55.90
2022-07-27T06:39:04.505Z,56.20
2022-07-27T06:44:07.027Z,56.30
2022-07-27T06:49:10.141Z,57.00
2022-07-27T06:54:12.768Z,57.20
2022-07-27T06:59:15.469Z,57.40
2022-07-27T07:04:18.173Z,57.50
2022-07-27T07:09:27.011Z,57.20
2022-07-27T07:14:29.403Z,57.70
2022-07-27T07:19:32.136Z,58.80
2022-07-27T07:24:34.432Z,57.60
2022-07-27T07:29:37.084Z,57.60
2022-07-27T07:34:39.323Z,55.50
2022-07-27T07:39:41.629Z,56.90
2022-07-27T08:42:53.922Z,61.20
2022-07-27T08:48:17.947Z,62.70
2022-07-27T08:53:22.178Z,63.30
2022-07-27T08:58:24.524Z,63.80
2022-07-27T09:03:27.196Z,64.20
2022-07-27T09:08:31.639Z,64.10
2022-07-27T09:13:34.531Z,63.30
2022-07-27T09:18:38.682Z,62.70
2022-07-27T09:29:01.477Z,62.90
2022-07-27T09:34:03.906Z,62.90
2022-07-27T09:39:07.032Z,63.40
2022-07-27T09:44:31.107Z,64.50
2022-07-27T09:49:34.384Z,65.00
2022-07-27T09:54:46.734Z,64.70
2022-07-27T09:59:49.080Z,65.10
2022-07-27T10:04:51.543Z,64.90
2022-07-27T10:09:54.957Z,65.70
2022-07-27T10:14:57.660Z,66.50
2022-07-27T10:20:03.997Z,67.50
2022-07-27T10:25:06.756Z,66.20
2022-07-27T10:30:09.936Z,67.20
2022-07-27T10:35:32.834Z,67.80
2022-07-27T10:40:35.238Z,67.00
2022-07-27T10:45:50.480Z,67.20
2022-07-27T10:51:05.828Z,68.10
2022-07-27T10:56:09.821Z,68.80
2022-07-27T11:01:15.795Z,69.30
2022-07-27T11:07:04.966Z,69.60
2022-07-27T11:11:48.642Z,68.70
2022-07-27T11:16:55.879Z,68.40
2022-07-27T11:22:04.495Z,69.40
2022-07-27T11:27:16.971Z,69.90
2022-07-27T11:32:21.652Z,70.40
2022-07-27T11:37:24.137Z,70.40
2022-07-27T11:42:38.312Z,71.80
2022-07-27T11:47:41.500Z,73.10
2022-07-27T11:52:43.803Z,74.10
2022-07-27T11:57:46.051Z,74.50
2022-07-27T12:02:50.199Z,74.50
2022-07-27T12:07:54.435Z,74.10
2022-07-27T12:12:56.698Z,75.20
2022-07-27T12:17:59.061Z,75.00
2022-07-27T12:23:07.356Z,75.20
2022-07-27T12:28:13.597Z,76.40
2022-07-27T12:33:37.135Z,75.60
2022-07-27T12:38:44.426Z,76.80
2022-07-27T12:49:16.903Z,76.70
2022-07-27T12:54:19.517Z,75.70
2022-07-27T12:59:23.580Z,75.00
2022-07-27T13:04:26.185Z,75.30
2022-07-27T13:10:02.172Z,76.40
2022-07-27T13:14:51.385Z,76.30
2022-07-27T13:19:53.662Z,76.90
2022-07-27T13:24:55.926Z,75.50
2022-07-27T13:29:59.943Z,74.50
2022-07-27T13:35:02.797Z,74.60
2022-07-27T13:40:05.943Z,74.90
2022-07-27T13:45:10.927Z,75.10
2022-07-27T13:50:19.401Z,75.30
2022-07-27T13:55:27.685Z,76.10
2022-07-27T14:00:30.361Z,76.00
2022-07-27T14:05:32.628Z,76.40
2022-07-27T14:10:41.861Z,77.30
2022-07-27T14:15:50.601Z,77.60
2022-07-27T14:21:00.331Z,77.00
2022-07-27T14:26:05.322Z,77.50
2022-07-27T14:31:10.257Z,78.50
2022-07-27T14:36:13.437Z,79.20
2022-07-27T14:41:16.342Z,78.70
2022-07-27T14:46:18.741Z,78.40
2022-07-27T14:51:21.130Z,78.20
2022-07-27T14:56:23.426Z,78.60
2022-07-27T15:01:25.973Z,77.00
2022-07-27T15:06:28.337Z,77.10
2022-07-27T15:11:30.677Z,77.40
2022-07-27T15:16:33.507Z,76.90
2022-07-27T15:21:35.880Z,77.30
2022-07-27T15:26:38.144Z,77.30
2022-07-27T15:31:40.503Z,77.40
2022-07-27T15:36:47.182Z,78.00
2022-07-27T15:57:28.217Z,78.30
2022-07-27T16:02:31.082Z,79.30
2022-07-27T16:07:41.632Z,79.50
2022-07-27T16:12:44.360Z,79.80
2022-07-27T16:17:46.629Z,79.80
2022-07-27T16:22:48.922Z,79.50
2022-07-27T16:27:51.201Z,79.10
2022-07-27T16:32:53.494Z,79.00
2022-07-27T16:37:56.245Z,78.60
2022-07-27T16:42:58.509Z,79.10
2022-07-27T16:48:01.339Z,78.80
2022-07-27T16:53:03.674Z,78.90
2022-07-27T16:58:06.004Z,79.30
2022-07-27T17:03:08.448Z,79.00
2022-07-27T17:08:11.746Z,80.00
2022-07-27T17:13:14.175Z,80.00
2022-07-27T17:18:17.491Z,80.60
2022-07-27T17:23:19.756Z,80.20
2022-07-27T17:28:22.032Z,80.40
2022-07-27T17:33:24.328Z,80.20
2022-07-27T17:38:28.284Z,80.30
2022-07-27T17:43:30.580Z,81.00
2022-07-27T17:48:33.062Z,81.40
2022-07-27T17:53:35.405Z,81.30
2022-07-27T17:58:38.444Z,81.10
2022-07-27T18:03:41.955Z,81.60
2022-07-27T18:08:44.938Z,80.80
2022-07-27T18:13:47.287Z,81.20
2022-07-27T18:18:49.588Z,81.00
2022-07-27T18:23:51.924Z,81.60
2022-07-27T18:28:55.182Z,82.20
2022-07-27T18:33:57.526Z,82.80
2022-07-27T18:38:59.844Z,83.70
2022-07-27T18:44:02.147Z,83.30
2022-07-27T18:49:05.083Z,83.20
2022-07-27T18:54:07.463Z,83.50
2022-07-27T18:59:09.874Z,83.40
2022-07-27T19:04:15.735Z,83.50
2022-07-27T19:09:18.839Z,83.50
2022-07-27T19:14:23.083Z,83.30
2022-07-27T19:19:25.712Z,83.40
2022-07-27T19:24:28.220Z,83.70
2022-07-27T19:29:30.619Z,84.10
2022-07-27T19:34:32.970Z,84.30
2022-07-27T19:39:58.541Z,83.70
2022-07-27T19:44:58.695Z,84.30
2022-07-27T19:50:01.821Z,83.40
2022-07-27T19:55:06.485Z,82.80
2022-07-27T20:00:10.100Z,82.90
2022-07-27T20:05:12.442Z,83.40
2022-07-27T20:10:15.643Z,84.60
2022-07-27T20:15:17.957Z,85.00
2022-07-27T20:20:20.361Z,85.50
2022-07-27T20:25:23.383Z,85.20
2022-07-27T20:30:26.379Z,85.60
2022-07-27T20:35:35.270Z,85.00
2022-07-27T20:40:40.460Z,83.70
2022-07-27T20:45:42.929Z,83.40
2022-07-27T20:50:45.231Z,83.50
2022-07-27T20:55:48.233Z,84.60
2022-07-27T21:00:50.816Z,84.70
2022-07-27T21:05:53.184Z,84.00
2022-07-27T21:10:55.538Z,83.60
2022-07-27T21:15:57.826Z,83.30
2022-07-27T21:21:00.158Z,82.90
2022-07-27T21:26:02.479Z,83.70
2022-07-27T21:31:04.803Z,82.70
2022-07-27T21:36:07.770Z,80.90
2022-07-27T21:41:10.025Z,81.70
2022-07-27T21:46:12.340Z,82.30
2022-07-27T21:51:18.254Z,82.80
2022-07-27T21:56:20.533Z,82.80
2022-07-27T22:01:22.912Z,82.30
2022-07-27T22:06:25.204Z,81.70
2022-07-27T22:11:27.448Z,83.00
2022-07-27T22:16:29.821Z,82.30
2022-07-27T22:21:32.119Z,82.70
2022-07-27T22:26:34.397Z,83.70
2022-07-27T22:31:36.712Z,85.00
2022-07-27T22:36:39.391Z,85.50
2022-07-27T22:41:41.648Z,85.80
2022-07-27T22:46:43.899Z,85.80
2022-07-27T22:51:49.867Z,86.20
2022-07-27T22:56:55.223Z,86.00
2022-07-27T23:01:58.036Z,86.70
2022-07-27T23:07:00.602Z,87.10
2022-07-27T23:12:03.693Z,87.40
2022-07-27T23:17:05.977Z,87.30
2022-07-27T23:22:11.380Z,87.40
2022-07-27T23:27:13.908Z,87.30
2022-07-27T23:32:16.176Z,87.70
2022-07-27T23:37:18.501Z,87.60
2022-07-27T23:42:20.860Z,87.50
2022-07-27T23:47:23.598Z,87.70
2022-07-27T23:52:25.896Z,87.60
2022-07-27T23:57:28.416Z,88.20
